»·PEaware :: N12529 KSBA-KAVX

N12529 :: KSBA-KAVX

FLIGHT INFORMATION

Flight Status: Arrived
Operator: Privately registered:
United States
More flights under this callsign
Pilot: Eduardo Elias G. (24838)
Aircraft: CESSNA 172 SKYHAWK
(C172)
More flights by this aircraft type
Origin: KSBA Santa Barbara Mun
United States
Destination: KAVX Catalina
United States
More flights between these airports :: More routes between these airports
Route: KWANG VTU V208 SXC
File this flight plan on PilotEdge
Remarks: Tec route SBAP4
Altitude:
(Current/Filed)
5,000ft
Speed:
(Current/Filed)
135kts
Departed: 21-Oct-20 09:32 PM
Arrived: 21-Oct-20 10:32 PM
Distance/Time
Traveled:
95nm/1:00
Distance/Time
To Go:
Arrived

Flight Plot

Page will automatically refresh every two minutes.


Map Options




Map Legend


Flown Route
Filed Route
Departure Airport
Arrival Airport
Navaid (VOR, NDB)
Fix

Horizontal Profiles

Position Reports

Time Latitude Longitude Heading Altitude Ground
Speed
21-Oct-20 21:17 34.426465 -119.854152 310 14ft 0kts
21-Oct-20 21:18 34.426465 -119.854152 310 14ft 0kts
21-Oct-20 21:19 34.426465 -119.854152 310 14ft 0kts
21-Oct-20 21:20 34.426465 -119.854152 310 14ft 0kts
21-Oct-20 21:21 34.426465 -119.854152 310 14ft 0kts
21-Oct-20 21:22 34.426465 -119.854152 310 14ft 0kts
21-Oct-20 21:23 34.426465 -119.854152 310 14ft 0kts
21-Oct-20 21:24 34.426465 -119.854152 310 14ft 0kts
21-Oct-20 21:25 34.426465 -119.854152 310 14ft 0kts
21-Oct-20 21:26 34.426465 -119.854152 310 14ft 0kts
21-Oct-20 21:27 34.426465 -119.854152 310 14ft 0kts
21-Oct-20 21:28 34.426466 -119.854153 311 14ft 0kts
21-Oct-20 21:29 34.426466 -119.854153 311 14ft 0kts
21-Oct-20 21:30 34.427515 -119.854289 87 14ft 11kts
21-Oct-20 21:31 34.427607 -119.838125 89 308ft 81kts
21-Oct-20 21:32 34.423490 -119.812127 163 1176ft 76kts
21-Oct-20 21:33 34.404919 -119.800910 152 1796ft 104kts
21-Oct-20 21:34 34.382913 -119.786869 153 2611ft 91kts
21-Oct-20 21:35 34.360412 -119.771124 160 3378ft 92kts
21-Oct-20 21:36 34.348000 -119.744330 117 4095ft 96kts
21-Oct-20 21:37 34.341971 -119.715431 106 4769ft 99kts
21-Oct-20 21:38 34.330523 -119.682946 110 5180ft 122kts
21-Oct-20 21:39 34.312774 -119.642568 121 5143ft 140kts
21-Oct-20 21:40 34.286373 -119.604743 131 4880ft 143kts
21-Oct-20 21:41 34.263407 -119.566572 125 4922ft 139kts
21-Oct-20 21:42 34.246854 -119.526027 109 5059ft 138kts
21-Oct-20 21:43 34.231385 -119.483753 99 5091ft 139kts
21-Oct-20 21:44 34.225865 -119.437866 102 5130ft 139kts
21-Oct-20 21:45 34.210525 -119.393221 110 4993ft 141kts
21-Oct-20 21:46 34.204991 -119.345277 94 4966ft 138kts
21-Oct-20 21:48 34.204457 -119.296698 85 5001ft 136kts
21-Oct-20 21:49 34.193992 -119.250203 111 5020ft 138kts
21-Oct-20 21:50 34.178408 -119.205309 113 5034ft 138kts
21-Oct-20 21:51 34.158830 -119.163394 123 5047ft 136kts
21-Oct-20 21:52 34.141185 -119.121468 115 5011ft 138kts
21-Oct-20 21:53 34.127163 -119.078347 107 5013ft 137kts
21-Oct-20 21:54 34.103562 -119.045196 173 4941ft 135kts
21-Oct-20 21:55 34.065760 -119.039973 183 4913ft 137kts
21-Oct-20 21:56 34.027871 -119.037356 168 4940ft 135kts
21-Oct-20 21:57 33.990329 -119.030617 177 4912ft 136kts
21-Oct-20 21:58 33.952475 -119.029637 181 4914ft 135kts
21-Oct-20 21:59 33.914685 -119.025806 176 4938ft 134kts
21-Oct-20 22:00 33.876916 -119.023154 179 4966ft 131kts
21-Oct-20 22:01 33.839977 -119.018082 166 4964ft 135kts
21-Oct-20 22:02 33.805870 -119.001143 133 4986ft 136kts
21-Oct-20 22:02 33.784209 -118.973333 134 5031ft 134kts
21-Oct-20 22:04 33.755373 -118.933445 130 5062ft 135kts
21-Oct-20 22:05 33.731846 -118.898150 129 5031ft 139kts
21-Oct-20 22:06 33.701577 -118.869067 145 4757ft 150kts
21-Oct-20 22:07 33.672083 -118.835395 141 4394ft 145kts
21-Oct-20 22:07 33.644644 -118.811785 146 4103ft 144kts
21-Oct-20 22:09 33.612328 -118.775627 136 4179ft 133kts
21-Oct-20 22:09 33.592605 -118.746604 119 4194ft 135kts
21-Oct-20 22:10 33.572583 -118.708887 132 4233ft 134kts
21-Oct-20 22:11 33.550634 -118.672584 117 4278ft 133kts
21-Oct-20 22:12 33.531880 -118.634041 131 4298ft 135kts
21-Oct-20 22:13 33.503131 -118.600585 124 4241ft 139kts
21-Oct-20 22:14 33.470331 -118.571020 175 4098ft 137kts
21-Oct-20 22:15 33.444354 -118.536176 105 3686ft 141kts
21-Oct-20 22:16 33.426724 -118.495241 133 3532ft 136kts
21-Oct-20 22:17 33.406061 -118.467520 128 3609ft 132kts
21-Oct-20 22:18 33.387420 -118.438745 129 3668ft 133kts
21-Oct-20 22:19 33.387259 -118.402628 5 3621ft 135kts
21-Oct-20 22:20 33.426151 -118.407410 352 3716ft 133kts
21-Oct-20 22:21 33.464198 -118.402291 4 3816ft 132kts
21-Oct-20 22:22 33.502291 -118.398485 8 3751ft 135kts
21-Oct-20 22:23 33.536099 -118.417484 321 3612ft 135kts
21-Oct-20 22:24 33.568086 -118.438225 14 3473ft 140kts
21-Oct-20 22:25 33.556978 -118.403199 144 3429ft 136kts
21-Oct-20 22:26 33.517015 -118.394135 192 3395ft 132kts
21-Oct-20 22:27 33.477433 -118.399752 175 3511ft 131kts
21-Oct-20 22:28 33.441126 -118.398614 198 3588ft 121kts
21-Oct-20 22:29 33.413580 -118.411492 201 3320ft 102kts
21-Oct-20 22:30 33.392972 -118.421647 215 2626ft 57kts
21-Oct-20 22:31 33.380122 -118.418648 213 1976ft 0kts

Navigation Log

Ident Type
Flight plan parsing failed, navigation log unavailable